createdAt,value
2022-10-04T12:10:00.949Z,27354.38
2022-10-04T12:10:58.625Z,27354.38
2022-10-04T12:11:58.614Z,27354.38
2022-10-04T12:12:58.584Z,27354.38
2022-10-04T12:13:58.578Z,27354.38
2022-10-04T12:14:58.552Z,27354.38
2022-10-04T12:15:58.593Z,27354.38
2022-10-04T12:16:58.579Z,27354.38
2022-10-04T12:17:58.505Z,27354.38
2022-10-04T12:18:58.499Z,27354.38
2022-10-04T12:19:58.479Z,27354.38
2022-10-04T12:20:58.467Z,27354.38
2022-10-04T12:21:58.444Z,27354.38
2022-10-04T12:22:58.451Z,27354.38
2022-10-04T12:23:58.425Z,27354.38
2022-10-04T12:24:58.409Z,27354.38
2022-10-04T12:25:58.397Z,27354.38
2022-10-04T12:26:58.371Z,27354.38
2022-10-04T12:27:58.384Z,27354.38
2022-10-04T12:28:58.350Z,27354.38
2022-10-04T12:29:58.325Z,27354.38
2022-10-04T12:30:58.321Z,27354.38
2022-10-04T12:31:58.373Z,27354.38
2022-10-04T12:32:58.438Z,27354.38
2022-10-04T12:33:58.267Z,27354.38
2022-10-04T12:34:58.267Z,27354.38
2022-10-04T12:35:58.251Z,27354.38
2022-10-04T12:36:58.225Z,27354.38
2022-10-04T12:37:58.233Z,27354.38
2022-10-04T12:38:58.203Z,27354.38
2022-10-04T12:39:58.189Z,27354.38
2022-10-04T12:40:58.168Z,27354.38
2022-10-04T12:41:58.167Z,27354.38
2022-10-04T12:42:58.161Z,27354.38
2022-10-04T12:43:58.126Z,27354.38
2022-10-04T12:44:58.115Z,27354.38
2022-10-04T12:45:58.270Z,27354.38
2022-10-04T12:46:58.095Z,27354.38
2022-10-04T12:47:58.087Z,27354.38
2022-10-04T12:48:58.064Z,27354.38
2022-10-04T12:49:58.046Z,27354.38
2022-10-04T12:50:58.041Z,27354.38
2022-10-04T12:51:58.023Z,27354.38
2022-10-04T12:52:58.030Z,27354.38
2022-10-04T12:53:58.946Z,27354.38
2022-10-04T12:54:57.999Z,27354.38
2022-10-04T12:55:57.969Z,27354.38
2022-10-04T12:56:57.962Z,27354.38
2022-10-04T12:57:57.949Z,27354.38
2022-10-04T12:58:57.939Z,27354.38
2022-10-04T12:59:57.926Z,27354.38
2022-10-04T13:01:02.108Z,27354.38
2022-10-04T13:01:57.949Z,27354.38
2022-10-04T13:02:57.877Z,27354.38
2022-10-04T13:03:57.889Z,27354.38
2022-10-04T13:04:57.860Z,27354.38
2022-10-04T13:05:57.851Z,27354.38
2022-10-04T13:06:57.837Z,27354.38
2022-10-04T13:07:57.817Z,27354.38
2022-10-04T13:08:57.814Z,27354.38
2022-10-04T13:10:22.460Z,27354.38
2022-10-04T13:10:57.783Z,27354.38
2022-10-04T13:11:57.767Z,27354.38
2022-10-04T13:12:59.799Z,27354.38
2022-10-04T13:13:57.754Z,27354.38
2022-10-04T13:14:57.737Z,27354.38
2022-10-04T13:17:57.690Z,27354.38
2022-10-04T13:18:57.689Z,27354.38
2022-10-04T13:19:57.674Z,27354.38
2022-10-04T13:20:57.653Z,27354.38
2022-10-04T13:21:57.653Z,27354.38
2022-10-04T13:22:58.274Z,27354.38
2022-10-04T13:23:57.644Z,27354.38
2022-10-04T13:24:57.620Z,27354.38
2022-10-04T13:26:02.696Z,27354.38
2022-10-04T13:26:57.594Z,27354.38
2022-10-04T13:27:57.624Z,27354.38
2022-10-04T13:28:57.615Z,27354.38
2022-10-04T13:29:57.550Z,27354.38
2022-10-04T13:30:57.546Z,27354.38
2022-10-04T13:31:57.585Z,27354.38
2022-10-04T13:32:57.520Z,27354.38
2022-10-04T13:33:57.528Z,27354.38
2022-10-04T13:34:57.531Z,27354.38
2022-10-04T13:35:57.478Z,27354.38
2022-10-04T13:36:57.465Z,27354.38
2022-10-04T13:37:57.462Z,27354.38
2022-10-04T13:38:57.463Z,27354.38
2022-10-04T13:39:57.440Z,27354.38
2022-10-04T13:40:57.417Z,27354.38
2022-10-04T13:41:57.422Z,27354.38
2022-10-04T13:42:57.406Z,27354.38
2022-10-04T13:43:57.408Z,27354.38
2022-10-04T13:44:57.373Z,27354.38
2022-10-04T13:45:57.441Z,27354.38
2022-10-04T13:46:57.350Z,27354.38
2022-10-04T13:47:57.344Z,27354.38
2022-10-04T13:48:57.355Z,27354.38
2022-10-04T13:49:57.321Z,27354.38
2022-10-04T13:50:57.315Z,27354.38
2022-10-04T13:51:57.301Z,27354.38
2022-10-04T13:52:57.294Z,27354.38
2022-10-04T13:53:57.289Z,27354.38
2022-10-04T13:54:57.266Z,27354.38
2022-10-04T13:55:57.264Z,27354.38
2022-10-04T13:56:57.251Z,27354.38
2022-10-04T13:57:57.259Z,27354.38
2022-10-04T13:58:57.234Z,27354.38
2022-10-04T14:09:30.714Z,2098.13
2022-10-04T14:10:30.692Z,2171.25
2022-10-04T14:11:30.673Z,2171.25
2022-10-04T14:12:30.665Z,2098.13
2022-10-04T14:13:30.659Z,2210.63
2022-10-04T14:14:30.662Z,2227.50
2022-10-04T14:15:30.637Z,2165.63
2022-10-04T14:16:30.675Z,2148.75
2022-10-04T14:17:30.614Z,2098.13
2022-10-04T14:18:30.607Z,2086.88
2022-10-04T14:19:30.604Z,2199.38
2022-10-04T14:20:30.576Z,2019.38
2022-10-04T14:21:30.574Z,2075.63
2022-10-04T14:22:30.605Z,2092.50
2022-10-04T14:23:30.555Z,2081.25
2022-10-04T14:24:30.568Z,2171.25
2022-10-04T14:25:30.581Z,2193.75
2022-10-04T14:26:30.518Z,2002.50
2022-10-04T14:27:30.532Z,1816.88
2022-10-04T14:28:30.559Z,1721.25
2022-10-04T14:29:30.489Z,1648.13
2022-10-04T14:30:30.496Z,1535.63
2022-10-04T14:31:36.044Z,1462.50
2022-10-04T14:32:30.463Z,1423.13
2022-10-04T14:33:30.452Z,1417.50
2022-10-04T14:34:30.455Z,1423.13
2022-10-04T14:35:30.447Z,1366.88
2022-10-04T14:36:30.582Z,945.00
2022-10-04T14:37:30.423Z,427.50
2022-10-04T14:38:30.434Z,292.50
2022-10-04T14:39:30.397Z,264.38
2022-10-04T14:40:30.528Z,253.13
